Fort Benton, Montana
Current Conditions -  °F | °C
As of 5:56 PM on Saturday 20 Dec 2014 (Local Time) from KGFA Reporting Station
Broken Clouds Broken Clouds  
Wind Chill: 25°   Ceiling: 24000
Heat Index: 34°   Visibility: 10mi
Dew Point: 27°   Wind: 14mph
Humidity: 74%   Direction: 210°SSW
Pressure: 29.71"   Gusts: NA
Location:  47.82°N, 110.67°W
Report Text: KGFA 210056Z AUTO 21012KT 10SM BKN240 01/M03 A2971 RMK AO2 SLP088 T00131028
Loading
Personal Weather Stations






























Interactive Weather Map New forecast layout! Learn more

10-Day Weather Forecast

Advertisements
Track Severe Weather on mobile